createdAt,value
2023-04-28T00:01:25.809Z,99.90
2023-04-28T00:03:52.760Z,99.90
2023-04-28T00:06:19.101Z,99.90
2023-04-28T00:08:45.265Z,99.90
2023-04-28T00:11:11.484Z,99.90
2023-04-28T00:13:38.115Z,99.90
2023-04-28T00:16:05.295Z,99.90
2023-04-28T00:18:32.919Z,99.90
2023-04-28T00:20:59.727Z,99.90
2023-04-28T00:23:26.026Z,99.90
2023-04-28T00:25:52.544Z,99.90
2023-04-28T00:28:32.938Z,99.90
2023-04-28T00:31:00.709Z,99.90
2023-04-28T00:33:26.842Z,99.90
2023-04-28T00:36:00.177Z,99.90
2023-04-28T00:38:26.613Z,99.90
2023-04-28T00:40:52.830Z,99.90
2023-04-28T00:43:18.962Z,99.90
2023-04-28T00:45:45.159Z,99.90
2023-04-28T00:48:12.144Z,99.90
2023-04-28T00:50:38.291Z,99.90
2023-04-28T00:53:04.408Z,99.90
2023-04-28T00:55:32.171Z,99.90
2023-04-28T00:57:58.615Z,99.90
2023-04-28T01:00:24.741Z,99.90
2023-04-28T01:02:52.152Z,99.90
2023-04-28T01:05:18.576Z,99.90
2023-04-28T01:07:44.752Z,99.90
2023-04-28T01:10:11.118Z,99.90
2023-04-28T01:12:37.327Z,99.90
2023-04-28T01:15:04.075Z,99.90
2023-04-28T01:17:30.283Z,99.90
2023-04-28T01:19:56.500Z,99.90
2023-04-28T01:22:22.667Z,99.90
2023-04-28T01:24:48.870Z,99.90
2023-04-28T01:27:15.866Z,99.90
2023-04-28T01:29:42.038Z,99.90
2023-04-28T01:32:08.162Z,99.90
2023-04-28T01:34:34.292Z,99.90
2023-04-28T01:37:00.500Z,99.90
2023-04-28T01:39:26.839Z,99.90
2023-04-28T01:41:52.973Z,99.90
2023-04-28T01:44:19.359Z,99.90
2023-04-28T01:46:45.752Z,99.90
2023-04-28T01:49:11.950Z,99.90
2023-04-28T01:51:38.256Z,99.90
2023-04-28T01:54:04.504Z,99.90
2023-04-28T01:56:30.661Z,99.90
2023-04-28T01:58:56.856Z,99.90
2023-04-28T02:01:23.055Z,99.90
2023-04-28T02:03:49.866Z,99.90
2023-04-28T02:06:16.061Z,99.90
2023-04-28T02:08:42.279Z,99.90
2023-04-28T02:11:08.416Z,99.90
2023-04-28T02:13:34.657Z,99.90
2023-04-28T02:16:01.753Z,99.90
2023-04-28T02:18:28.105Z,99.90
2023-04-28T02:20:54.207Z,99.90
2023-04-28T02:23:20.336Z,99.90
2023-04-28T02:25:46.490Z,99.90
2023-04-28T02:28:12.679Z,99.90
2023-04-28T02:30:38.855Z,99.90
2023-04-28T02:33:05.135Z,99.90
2023-04-28T02:35:31.341Z,99.90
2023-04-28T02:37:57.551Z,99.90
2023-04-28T02:40:23.711Z,99.90
2023-04-28T02:42:49.859Z,99.90
2023-04-28T02:45:16.234Z,99.90
2023-04-28T02:47:42.560Z,99.90
2023-04-28T02:50:10.148Z,99.90
2023-04-28T02:52:36.371Z,99.90
2023-04-28T02:55:04.010Z,99.90
2023-04-28T02:57:30.413Z,99.90
2023-04-28T02:59:56.686Z,99.90
2023-04-28T03:02:23.092Z,99.90
2023-04-28T03:04:49.827Z,99.90
2023-04-28T03:07:16.387Z,99.90
2023-04-28T03:09:42.505Z,99.90
2023-04-28T03:12:08.640Z,99.90
2023-04-28T03:14:34.776Z,99.90
2023-04-28T03:17:01.313Z,99.90
2023-04-28T03:19:27.467Z,99.90
2023-04-28T03:21:53.666Z,99.90
2023-04-28T03:24:20.359Z,99.90
2023-04-28T03:26:46.521Z,99.90
2023-04-28T03:29:12.740Z,99.90
2023-04-28T03:31:38.980Z,99.90
2023-04-28T03:34:05.219Z,99.90
2023-04-28T03:36:31.345Z,99.90
2023-04-28T03:38:57.544Z,99.90
2023-04-28T03:41:23.664Z,99.90
2023-04-28T03:43:51.276Z,99.90
2023-04-28T03:46:17.497Z,99.90
2023-04-28T03:48:45.471Z,99.90
2023-04-28T03:51:11.774Z,99.90
2023-04-28T03:53:38.040Z,99.90
2023-04-28T03:56:05.041Z,99.90
2023-04-28T03:58:31.240Z,99.90
2023-04-28T04:00:57.479Z,99.90
2023-04-28T04:03:25.671Z,99.90
2023-04-28T04:05:52.913Z,99.90
2023-04-28T04:08:19.316Z,99.90
2023-04-28T04:10:45.500Z,99.90
2023-04-28T04:13:11.754Z,99.90
2023-04-28T04:15:38.039Z,99.90
2023-04-28T04:18:04.753Z,99.90
2023-04-28T04:20:30.919Z,98.20
2023-04-28T04:22:57.192Z,96.30
2023-04-28T04:25:23.535Z,95.00
2023-04-28T04:27:49.834Z,94.30
2023-04-28T04:30:16.275Z,94.20
2023-04-28T04:32:42.612Z,93.60
2023-04-28T04:35:09.335Z,94.30
2023-04-28T04:37:35.560Z,93.70
2023-04-28T04:40:02.514Z,95.40
2023-04-28T04:42:29.441Z,94.70
2023-04-28T04:44:55.553Z,94.60
2023-04-28T04:47:21.729Z,95.10
2023-04-28T04:49:49.241Z,95.10
2023-04-28T04:52:15.585Z,94.80
2023-04-28T04:54:41.743Z,95.60
2023-04-28T04:57:08.007Z,95.60
2023-04-28T04:59:34.177Z,95.30
2023-04-28T05:02:00.496Z,96.80
2023-04-28T05:04:26.817Z,95.20
2023-04-28T05:06:53.087Z,95.20
2023-04-28T05:09:19.278Z,95.40
2023-04-28T05:11:45.828Z,95.00
2023-04-28T05:14:11.986Z,95.70
2023-04-28T05:16:38.564Z,96.10
2023-04-28T05:19:04.769Z,95.40
2023-04-28T05:21:31.956Z,96.50
2023-04-28T05:23:58.118Z,95.90
2023-04-28T05:26:24.254Z,95.60
2023-04-28T05:28:50.721Z,94.30
2023-04-28T05:31:16.909Z,93.70
2023-04-28T05:33:43.087Z,94.60
2023-04-28T05:36:09.228Z,94.00
2023-04-28T05:38:35.437Z,93.80
2023-04-28T05:41:01.768Z,94.70
2023-04-28T05:43:28.012Z,93.30
2023-04-28T05:45:54.472Z,93.60
2023-04-28T05:48:20.803Z,93.60
2023-04-28T05:50:47.412Z,92.90
2023-04-28T05:53:13.677Z,93.70
2023-04-28T05:55:40.165Z,92.20
2023-04-28T05:58:07.449Z,92.90
2023-04-28T06:00:33.824Z,92.90
2023-04-28T06:03:03.168Z,93.00
2023-04-28T06:05:29.737Z,92.00
2023-04-28T06:07:56.284Z,91.90
2023-04-28T06:10:23.058Z,91.30
2023-04-28T06:12:49.560Z,92.50
2023-04-28T06:15:15.933Z,91.80
2023-04-28T06:17:42.277Z,91.60
2023-04-28T06:20:10.575Z,89.70
2023-04-28T06:22:37.315Z,88.40
2023-04-28T06:25:04.247Z,85.00
2023-04-28T06:27:32.215Z,83.40
2023-04-28T06:29:58.817Z,82.10
2023-04-28T06:32:25.043Z,79.40
2023-04-28T06:34:51.314Z,78.20
2023-04-28T06:37:18.320Z,75.10
2023-04-28T06:39:45.213Z,77.40
2023-04-28T06:42:11.405Z,72.10
2023-04-28T06:44:37.737Z,74.20
2023-04-28T06:47:04.158Z,65.80
2023-04-28T06:49:30.673Z,59.90
2023-04-28T06:51:56.908Z,61.80
2023-04-28T06:54:23.245Z,62.70
2023-04-28T06:56:49.466Z,64.40
2023-04-28T06:59:15.673Z,64.90
2023-04-28T07:01:41.871Z,68.20
2023-04-28T07:04:08.213Z,72.20
2023-04-28T07:06:35.117Z,74.90
2023-04-28T07:09:01.317Z,74.40
2023-04-28T07:11:27.505Z,79.10
2023-04-28T07:13:53.702Z,75.00
2023-04-28T07:16:21.308Z,73.10
2023-04-28T07:18:47.614Z,72.30
2023-04-28T07:21:13.915Z,72.90
2023-04-28T07:23:40.305Z,68.00
2023-04-28T07:26:06.678Z,66.30
2023-04-28T07:28:33.346Z,69.00
2023-04-28T07:30:59.675Z,68.40
2023-04-28T07:33:25.930Z,62.30
2023-04-28T07:35:52.418Z,62.60
2023-04-28T07:38:19.859Z,60.10
2023-04-28T07:40:46.631Z,55.10
2023-04-28T07:43:13.318Z,55.20
2023-04-28T07:45:39.710Z,53.20
2023-04-28T07:48:06.032Z,53.00
2023-04-28T07:50:32.507Z,49.70
2023-04-28T07:52:58.746Z,52.20
2023-04-28T07:55:24.947Z,48.10
2023-04-28T07:57:51.198Z,50.60
2023-04-28T08:00:18.790Z,47.80
2023-04-28T08:02:45.184Z,47.20
2023-04-28T08:05:11.777Z,47.80
2023-04-28T08:07:38.250Z,41.20
2023-04-28T08:10:05.352Z,42.00
2023-04-28T08:12:32.109Z,41.70
2023-04-28T08:14:58.311Z,40.30
2023-04-28T08:17:24.623Z,39.60
2023-04-28T08:19:50.855Z,41.10
2023-04-28T08:22:17.154Z,40.30
2023-04-28T08:24:43.376Z,40.30
2023-04-28T08:27:09.605Z,41.90
2023-04-28T08:29:35.805Z,44.10
2023-04-28T08:32:02.059Z,43.40
2023-04-28T08:34:28.665Z,44.00
2023-04-28T08:36:54.949Z,43.00
2023-04-28T08:39:22.910Z,44.30
2023-04-28T08:41:50.054Z,43.00
2023-04-28T08:44:16.930Z,44.20
2023-04-28T08:46:43.799Z,40.30
2023-04-28T08:49:17.791Z,42.60
2023-04-28T08:51:54.613Z,41.00
2023-04-28T08:54:26.622Z,39.90
2023-04-28T08:56:53.754Z,39.30
2023-04-28T08:59:20.008Z,40.00
2023-04-28T09:01:48.902Z,35.90
2023-04-28T09:04:19.845Z,38.50
2023-04-28T09:06:47.142Z,36.50
2023-04-28T09:09:46.667Z,37.70
2023-04-28T09:12:13.430Z,41.80
2023-04-28T09:14:39.653Z,38.60
2023-04-28T09:17:12.546Z,37.30
2023-04-28T09:19:38.936Z,35.80
2023-04-28T09:22:17.575Z,38.80
2023-04-28T09:24:52.377Z,35.20
2023-04-28T09:27:21.053Z,37.10
2023-04-28T09:29:52.366Z,34.50
2023-04-28T09:32:20.942Z,36.00
2023-04-28T09:34:53.080Z,37.00
2023-04-28T09:37:23.296Z,36.40
2023-04-28T09:39:53.910Z,38.30
2023-04-28T09:42:42.082Z,38.00
2023-04-28T09:45:15.122Z,37.60
2023-04-28T09:47:42.785Z,34.00
2023-04-28T09:50:12.099Z,34.00
2023-04-28T09:52:38.348Z,37.00
2023-04-28T09:55:06.043Z,38.00
2023-04-28T09:57:33.319Z,36.70
2023-04-28T09:59:59.691Z,40.00
2023-04-28T10:02:42.575Z,40.00
2023-04-28T10:05:11.195Z,41.20
2023-04-28T10:07:38.330Z,36.10
2023-04-28T10:10:05.737Z,40.60
2023-04-28T10:12:31.948Z,36.50
2023-04-28T10:14:59.089Z,38.60
2023-04-28T10:17:25.766Z,37.50
2023-04-28T10:19:53.186Z,40.20
2023-04-28T10:22:59.956Z,39.90
2023-04-28T10:25:35.679Z,42.00
2023-04-28T10:28:05.705Z,42.40
2023-04-28T10:30:32.430Z,43.70
2023-04-28T10:36:46.702Z,43.80
2023-04-28T10:39:13.578Z,43.80
2023-04-28T10:41:40.075Z,45.00
2023-04-28T10:44:43.277Z,42.30
2023-04-28T10:47:10.047Z,42.30
2023-04-28T10:56:26.182Z,40.60
2023-04-28T10:58:58.934Z,39.80
2023-04-28T11:01:30.243Z,43.90
2023-04-28T11:04:02.338Z,42.00
2023-04-28T11:06:39.510Z,44.60
2023-04-28T11:10:07.080Z,39.40
2023-04-28T11:12:33.261Z,44.80
2023-04-28T11:15:11.220Z,44.20
2023-04-28T11:17:41.339Z,44.20
2023-04-28T11:20:08.550Z,44.10
2023-04-28T11:22:34.782Z,41.60
2023-04-28T11:25:02.221Z,42.60
2023-04-28T11:27:30.108Z,46.50
2023-04-28T11:29:56.599Z,43.00
2023-04-28T11:32:27.838Z,43.20
2023-04-28T11:34:53.997Z,42.40
2023-04-28T11:37:23.370Z,38.40
2023-04-28T11:39:50.013Z,38.30
2023-04-28T11:42:16.822Z,43.40
2023-04-28T11:44:52.268Z,43.30
2023-04-28T11:47:32.234Z,42.20
2023-04-28T11:49:58.574Z,40.60
2023-04-28T11:52:26.657Z,40.20
2023-04-28T11:54:54.618Z,37.50
2023-04-28T11:57:21.035Z,40.90
2023-04-28T11:59:47.503Z,39.10
2023-04-28T12:02:14.273Z,43.70
2023-04-28T12:04:41.677Z,39.60
2023-04-28T12:07:15.555Z,42.40
2023-04-28T12:09:46.617Z,42.20
2023-04-28T12:12:15.062Z,39.20
2023-04-28T12:15:01.271Z,41.90
2023-04-28T12:17:38.416Z,40.20
2023-04-28T12:20:07.770Z,42.20
2023-04-28T12:22:52.548Z,39.40
2023-04-28T12:25:18.916Z,39.40
2023-04-28T12:28:05.252Z,38.20
2023-04-28T12:30:33.059Z,38.30
2023-04-28T12:32:59.473Z,38.00
2023-04-28T12:35:26.429Z,41.30
2023-04-28T12:37:53.124Z,42.00
2023-04-28T12:40:19.450Z,39.00
2023-04-28T12:42:45.599Z,41.30
2023-04-28T12:45:12.099Z,42.00
2023-04-28T12:47:39.170Z,40.20
2023-04-28T12:50:06.793Z,40.10
2023-04-28T12:52:34.912Z,43.40
2023-04-28T12:55:01.965Z,42.40
2023-04-28T12:57:28.881Z,43.30
2023-04-28T12:59:56.454Z,44.00
2023-04-28T13:02:23.165Z,46.20
2023-04-28T13:04:51.329Z,42.80
2023-04-28T13:07:17.733Z,40.60
2023-04-28T13:09:44.422Z,42.80
2023-04-28T13:12:14.018Z,40.40
2023-04-28T13:14:40.190Z,40.50
2023-04-28T13:17:06.397Z,40.80
2023-04-28T13:19:33.959Z,41.50
2023-04-28T13:22:00.903Z,36.40
2023-04-28T13:24:27.139Z,41.20
2023-04-28T13:26:53.320Z,36.40
2023-04-28T13:29:19.817Z,38.40
2023-04-28T13:31:46.145Z,39.30
2023-04-28T13:34:16.825Z,37.10
2023-04-28T13:36:47.462Z,36.80
2023-04-28T13:39:14.029Z,37.70
2023-04-28T13:41:40.353Z,37.30
2023-04-28T13:44:06.525Z,37.80
2023-04-28T13:46:32.949Z,37.00
2023-04-28T13:48:59.547Z,40.70
2023-04-28T13:51:25.701Z,40.40
2023-04-28T13:53:52.003Z,41.30
2023-04-28T13:56:18.138Z,40.10
2023-04-28T13:58:44.321Z,38.20
2023-04-28T14:01:11.194Z,37.50
2023-04-28T14:03:37.571Z,39.60
2023-04-28T14:06:04.647Z,37.40
2023-04-28T14:08:30.934Z,40.60
2023-04-28T14:10:57.057Z,39.20
2023-04-28T14:13:24.194Z,39.70
2023-04-28T14:15:59.656Z,40.00
2023-04-28T14:18:26.872Z,38.40
2023-04-28T14:20:53.681Z,38.60
2023-04-28T14:23:20.431Z,39.10
2023-04-28T14:25:46.605Z,39.60
2023-04-28T14:28:12.746Z,39.60
2023-04-28T14:30:38.895Z,40.50
2023-04-28T14:33:05.091Z,39.50
2023-04-28T14:35:31.882Z,43.30
2023-04-28T14:37:58.352Z,40.70
2023-04-28T14:40:25.032Z,40.80
2023-04-28T14:42:52.183Z,39.70
2023-04-28T14:45:18.457Z,39.50
2023-04-28T14:47:44.961Z,41.30
2023-04-28T14:50:13.159Z,39.90
2023-04-28T14:52:40.487Z,43.20
2023-04-28T14:55:07.879Z,41.50
2023-04-28T14:57:34.429Z,42.50
2023-04-28T15:00:01.194Z,44.30
2023-04-28T15:02:28.902Z,43.60
2023-04-28T15:04:56.429Z,43.50
2023-04-28T15:07:23.049Z,44.50
2023-04-28T15:09:49.658Z,42.70
2023-04-28T15:12:15.859Z,44.20
2023-04-28T15:14:42.145Z,44.70
2023-04-28T15:17:09.394Z,44.40
2023-04-28T15:19:36.245Z,44.70
2023-04-28T15:22:03.082Z,44.30
2023-04-28T15:24:29.302Z,44.00
2023-04-28T15:26:56.128Z,43.20
2023-04-28T15:29:23.284Z,44.00
2023-04-28T15:31:49.749Z,44.20
2023-04-28T15:34:16.072Z,46.80
2023-04-28T15:36:42.962Z,44.10
2023-04-28T15:39:09.602Z,46.40
2023-04-28T15:41:35.886Z,45.50
2023-04-28T15:44:02.098Z,46.80
2023-04-28T15:46:28.763Z,45.90
2023-04-28T15:48:54.935Z,46.10
2023-04-28T15:51:21.310Z,47.20
2023-04-28T15:53:49.922Z,47.40
2023-04-28T15:56:19.741Z,44.80
2023-04-28T15:58:47.144Z,45.00
2023-04-28T16:01:13.804Z,45.90
2023-04-28T16:03:40.334Z,43.70
2023-04-28T16:06:07.526Z,44.90
2023-04-28T16:08:34.885Z,45.40
2023-04-28T16:11:09.725Z,45.30
2023-04-28T16:13:36.488Z,45.30
2023-04-28T16:16:03.849Z,43.80
2023-04-28T16:18:30.130Z,44.80
2023-04-28T16:20:56.944Z,45.00
2023-04-28T16:23:23.448Z,45.30
2023-04-28T16:25:50.431Z,43.80
2023-04-28T16:28:17.059Z,45.40
2023-04-28T16:30:43.425Z,43.80
2023-04-28T16:33:09.637Z,45.60
2023-04-28T16:35:36.281Z,45.30
2023-04-28T16:38:02.428Z,46.60
2023-04-28T16:40:29.544Z,47.30
2023-04-28T16:42:56.232Z,47.10
2023-04-28T16:45:22.948Z,45.80
2023-04-28T16:47:49.425Z,49.60
2023-04-28T16:50:16.621Z,47.30
2023-04-28T16:52:42.820Z,46.20
2023-04-28T16:55:10.122Z,46.20
2023-04-28T16:57:36.638Z,47.20
2023-04-28T17:00:04.345Z,48.50
2023-04-28T17:02:31.939Z,47.90
2023-04-28T17:04:58.396Z,49.30
2023-04-28T17:07:25.691Z,50.40
2023-04-28T17:09:52.288Z,50.50
2023-04-28T17:12:20.574Z,50.60
2023-04-28T17:14:47.035Z,53.60
2023-04-28T17:17:13.778Z,52.10
2023-04-28T17:19:41.411Z,52.10
2023-04-28T17:22:07.568Z,52.50
2023-04-28T17:24:33.804Z,51.70
2023-04-28T17:27:00.462Z,53.60
2023-04-28T17:29:27.465Z,52.60
2023-04-28T17:31:53.820Z,52.40
2023-04-28T17:34:20.637Z,52.60
2023-04-28T17:36:47.586Z,54.10
2023-04-28T17:39:15.558Z,56.10
2023-04-28T17:41:44.641Z,56.00
2023-04-28T17:44:11.179Z,58.20
2023-04-28T17:46:38.425Z,58.40
2023-04-28T17:49:04.758Z,60.90
2023-04-28T17:51:31.697Z,59.60
2023-04-28T17:53:58.068Z,62.40
2023-04-28T17:56:24.283Z,61.90
2023-04-28T17:58:51.719Z,60.50
2023-04-28T18:01:18.242Z,58.40
2023-04-28T18:03:46.081Z,60.10
2023-04-28T18:06:13.093Z,61.00
2023-04-28T18:08:40.469Z,61.60
2023-04-28T18:11:09.159Z,64.60
2023-04-28T18:13:35.568Z,65.20
2023-04-28T18:16:03.935Z,65.00
2023-04-28T18:18:31.594Z,66.20
2023-04-28T18:21:00.177Z,66.30
2023-04-28T18:23:27.016Z,67.80
2023-04-28T18:25:53.216Z,66.40
2023-04-28T18:28:19.511Z,68.20
2023-04-28T18:30:46.547Z,71.20
2023-04-28T18:33:12.902Z,71.50
2023-04-28T18:35:39.911Z,70.70
2023-04-28T18:38:06.695Z,74.40
2023-04-28T18:40:38.314Z,73.90
2023-04-28T18:43:08.010Z,74.60
2023-04-28T18:45:35.166Z,77.20
2023-04-28T18:48:03.134Z,78.90
2023-04-28T18:50:30.539Z,77.80
2023-04-28T18:52:58.795Z,78.10
2023-04-28T18:55:25.450Z,78.90
2023-04-28T18:57:52.612Z,78.90
2023-04-28T19:00:20.082Z,81.50
2023-04-28T19:02:47.789Z,80.30
2023-04-28T19:05:14.301Z,77.00
2023-04-28T19:07:43.388Z,79.10
2023-04-28T19:10:10.263Z,78.50
2023-04-28T19:12:36.649Z,77.40
2023-04-28T19:15:03.067Z,76.40
2023-04-28T19:17:29.961Z,80.20
2023-04-28T19:19:56.938Z,76.00
2023-04-28T19:22:40.597Z,77.60
2023-04-28T19:25:07.688Z,75.00
2023-04-28T19:27:38.765Z,76.30
2023-04-28T19:30:07.052Z,75.90
2023-04-28T19:32:33.855Z,77.00
2023-04-28T19:35:00.483Z,75.40
2023-04-28T19:37:28.212Z,74.60
2023-04-28T19:39:55.183Z,74.50
2023-04-28T19:42:26.362Z,75.90
2023-04-28T19:44:56.795Z,76.60
2023-04-28T19:47:26.991Z,77.30
2023-04-28T19:49:53.926Z,80.60
2023-04-28T19:52:21.067Z,77.00
2023-04-28T19:54:50.938Z,77.00
2023-04-28T19:57:17.962Z,76.00
2023-04-28T19:59:48.144Z,75.40
2023-04-28T20:02:15.460Z,76.60
2023-04-28T20:04:42.158Z,78.20
2023-04-28T20:07:09.359Z,76.80
2023-04-28T20:09:35.940Z,76.70
2023-04-28T20:12:06.954Z,77.30
2023-04-28T20:14:33.635Z,77.60
2023-04-28T20:17:01.328Z,78.00
2023-04-28T20:19:27.592Z,79.60
2023-04-28T20:21:54.028Z,79.50
2023-04-28T20:24:20.198Z,79.50
2023-04-28T20:26:47.241Z,79.40
2023-04-28T20:29:13.857Z,80.80
2023-04-28T20:31:40.106Z,82.80
2023-04-28T20:34:08.188Z,83.30
2023-04-28T20:36:34.374Z,81.70
2023-04-28T20:39:00.653Z,84.80
2023-04-28T20:41:26.955Z,82.80
2023-04-28T20:43:53.773Z,82.00
2023-04-28T20:46:21.157Z,83.90
2023-04-28T20:48:47.411Z,86.50
2023-04-28T20:51:13.673Z,84.50
2023-04-28T20:53:40.129Z,84.20
2023-04-28T20:56:06.397Z,86.70
2023-04-28T20:58:32.867Z,88.20
2023-04-28T21:00:59.120Z,84.20
2023-04-28T21:03:25.640Z,85.00
2023-04-28T21:05:52.047Z,86.20
2023-04-28T21:08:18.171Z,85.90
2023-04-28T21:10:44.608Z,85.70
2023-04-28T21:13:12.272Z,86.40
2023-04-28T21:15:38.875Z,87.30
2023-04-28T21:18:05.242Z,88.80
2023-04-28T21:20:32.140Z,87.70
2023-04-28T21:22:58.288Z,87.50
2023-04-28T21:25:27.490Z,89.00
2023-04-28T21:27:53.713Z,90.50
2023-04-28T21:30:21.460Z,89.50
2023-04-28T21:32:47.873Z,90.50
2023-04-28T21:35:16.053Z,90.50
2023-04-28T21:37:42.415Z,89.50
2023-04-28T21:40:09.142Z,89.70
2023-04-28T21:42:35.345Z,90.50
2023-04-28T21:45:01.908Z,90.00
2023-04-28T21:47:29.001Z,90.00
2023-04-28T21:49:55.665Z,90.20
2023-04-28T21:52:21.857Z,90.40
2023-04-28T21:54:48.088Z,90.60
2023-04-28T21:57:15.070Z,90.30
2023-04-28T21:59:41.297Z,90.90
2023-04-28T22:02:07.538Z,90.80
2023-04-28T22:04:33.887Z,90.90
2023-04-28T22:07:00.499Z,90.60
2023-04-28T22:09:27.712Z,91.20
2023-04-28T22:11:54.113Z,91.60
2023-04-28T22:14:38.649Z,91.50
2023-04-28T22:17:06.492Z,92.30
2023-04-28T22:19:33.170Z,91.60
2023-04-28T22:21:59.380Z,92.20
2023-04-28T22:24:25.535Z,92.50
2023-04-28T22:26:52.280Z,93.70
2023-04-28T22:29:19.285Z,93.80
2023-04-28T22:31:46.022Z,93.10
2023-04-28T22:34:12.304Z,92.60
2023-04-28T22:36:38.511Z,92.90
2023-04-28T22:39:05.035Z,94.00
2023-04-28T22:41:31.286Z,94.40
2023-04-28T22:43:57.493Z,94.30
2023-04-28T22:46:23.732Z,94.60
2023-04-28T22:48:50.292Z,95.30
2023-04-28T22:51:16.949Z,95.20
2023-04-28T22:53:43.185Z,95.50
2023-04-28T22:56:09.464Z,95.70
2023-04-28T22:58:35.634Z,95.90
2023-04-28T23:01:03.620Z,96.10
2023-04-28T23:03:29.959Z,96.60
2023-04-28T23:05:56.222Z,96.80
2023-04-28T23:08:22.658Z,96.40
2023-04-28T23:10:49.062Z,95.50
2023-04-28T23:13:15.219Z,95.00
2023-04-28T23:15:41.401Z,94.90
2023-04-28T23:18:07.545Z,95.30
2023-04-28T23:20:34.148Z,94.90
2023-04-28T23:23:00.314Z,95.40
2023-04-28T23:25:26.525Z,95.50
2023-04-28T23:27:52.686Z,95.20
2023-04-28T23:30:18.970Z,94.90
2023-04-28T23:32:45.174Z,95.10
2023-04-28T23:35:11.532Z,95.50
2023-04-28T23:37:37.778Z,95.10
2023-04-28T23:40:05.093Z,94.30
2023-04-28T23:42:31.284Z,94.00
2023-04-28T23:44:58.372Z,93.80
2023-04-28T23:47:24.574Z,93.70
2023-04-28T23:49:50.882Z,93.50
2023-04-28T23:52:18.659Z,93.20
2023-04-28T23:54:44.950Z,93.30
2023-04-28T23:57:11.245Z,93.10
2023-04-28T23:59:37.415Z,93.20
